sensor_id;sensor_type;location;lat;lon;timestamp;P1;durP1;ratioP1;P2;durP2;ratioP2
72621;SDS011;60665;53.506;9.582;2022-07-29T00:00:39;3.55;;;1.10;;
72621;SDS011;60665;53.506;9.582;2022-07-29T00:03:04;3.40;;;0.90;;
72621;SDS011;60665;53.506;9.582;2022-07-29T00:05:30;2.58;;;0.82;;
72621;SDS011;60665;53.506;9.582;2022-07-29T00:07:55;2.85;;;1.10;;
72621;SDS011;60665;53.506;9.582;2022-07-29T00:10:20;7.85;;;1.48;;
72621;SDS011;60665;53.506;9.582;2022-07-29T00:12:46;4.72;;;1.30;;
72621;SDS011;60665;53.506;9.582;2022-07-29T00:15:11;3.28;;;1.35;;
72621;SDS011;60665;53.506;9.582;2022-07-29T00:17:37;4.07;;;1.23;;
72621;SDS011;60665;53.506;9.582;2022-07-29T00:20:03;5.40;;;1.33;;
72621;SDS011;60665;53.506;9.582;2022-07-29T00:22:28;3.28;;;0.93;;
72621;SDS011;60665;53.506;9.582;2022-07-29T00:24:54;4.18;;;1.23;;
72621;SDS011;60665;53.506;9.582;2022-07-29T00:27:19;4.55;;;1.15;;
72621;SDS011;60665;53.506;9.582;2022-07-29T00:29:45;4.13;;;1.05;;
72621;SDS011;60665;53.506;9.582;2022-07-29T00:32:10;3.95;;;1.30;;
72621;SDS011;60665;53.506;9.582;2022-07-29T00:34:35;2.63;;;1.02;;
72621;SDS011;60665;53.506;9.582;2022-07-29T00:37:19;3.90;;;1.40;;
72621;SDS011;60665;53.506;9.582;2022-07-29T00:39:45;5.47;;;1.27;;
72621;SDS011;60665;53.506;9.582;2022-07-29T00:42:10;7.40;;;1.20;;
72621;SDS011;60665;53.506;9.582;2022-07-29T00:44:39;6.22;;;1.42;;
72621;SDS011;60665;53.506;9.582;2022-07-29T00:47:05;4.10;;;1.27;;
72621;SDS011;60665;53.506;9.582;2022-07-29T00:49:31;4.80;;;1.10;;
72621;SDS011;60665;53.506;9.582;2022-07-29T00:51:57;5.15;;;1.38;;
72621;SDS011;60665;53.506;9.582;2022-07-29T00:54:22;4.55;;;1.20;;
72621;SDS011;60665;53.506;9.582;2022-07-29T00:56:48;4.35;;;1.50;;
72621;SDS011;60665;53.506;9.582;2022-07-29T00:59:14;5.40;;;1.58;;
72621;SDS011;60665;53.506;9.582;2022-07-29T01:01:39;3.67;;;1.42;;
72621;SDS011;60665;53.506;9.582;2022-07-29T01:04:05;5.43;;;1.23;;
72621;SDS011;60665;53.506;9.582;2022-07-29T01:06:31;5.38;;;1.38;;
72621;SDS011;60665;53.506;9.582;2022-07-29T01:08:56;4.40;;;1.58;;
72621;SDS011;60665;53.506;9.582;2022-07-29T01:11:21;3.95;;;1.48;;
72621;SDS011;60665;53.506;9.582;2022-07-29T01:13:47;3.75;;;1.33;;
72621;SDS011;60665;53.506;9.582;2022-07-29T01:16:13;5.40;;;1.42;;
72621;SDS011;60665;53.506;9.582;2022-07-29T01:18:44;4.60;;;1.10;;
72621;SDS011;60665;53.506;9.582;2022-07-29T01:29:59;5.00;;;1.23;;
72621;SDS011;60665;53.506;9.582;2022-07-29T01:32:28;3.65;;;1.20;;
72621;SDS011;60665;53.506;9.582;2022-07-29T01:34:57;5.30;;;1.33;;
72621;SDS011;60665;53.506;9.582;2022-07-29T01:40:24;10.30;;;1.52;;
72621;SDS011;60665;53.506;9.582;2022-07-29T01:42:54;4.63;;;1.20;;
72621;SDS011;60665;53.506;9.582;2022-07-29T01:50:37;3.28;;;1.15;;
72621;SDS011;60665;53.506;9.582;2022-07-29T01:53:29;3.45;;;1.25;;
72621;SDS011;60665;53.506;9.582;2022-07-29T01:55:58;5.10;;;1.35;;
72621;SDS011;60665;53.506;9.582;2022-07-29T01:58:25;3.03;;;1.20;;
72621;SDS011;60665;53.506;9.582;2022-07-29T02:00:52;5.60;;;1.45;;
72621;SDS011;60665;53.506;9.582;2022-07-29T02:03:18;4.55;;;1.10;;
72621;SDS011;60665;53.506;9.582;2022-07-29T02:05:44;5.68;;;1.45;;
72621;SDS011;60665;53.506;9.582;2022-07-29T02:08:11;2.55;;;1.10;;
72621;SDS011;60665;53.506;9.582;2022-07-29T02:10:38;4.32;;;1.38;;
72621;SDS011;60665;53.506;9.582;2022-07-29T02:13:05;4.75;;;1.33;;
72621;SDS011;60665;53.506;9.582;2022-07-29T02:15:32;5.10;;;1.20;;
72621;SDS011;60665;53.506;9.582;2022-07-29T02:18:01;4.85;;;1.20;;
72621;SDS011;60665;53.506;9.582;2022-07-29T02:20:30;4.88;;;1.48;;
72621;SDS011;60665;53.506;9.582;2022-07-29T02:22:57;3.97;;;1.60;;
72621;SDS011;60665;53.506;9.582;2022-07-29T02:25:24;4.50;;;1.35;;
72621;SDS011;60665;53.506;9.582;2022-07-29T02:27:50;4.07;;;1.08;;
72621;SDS011;60665;53.506;9.582;2022-07-29T02:30:17;4.57;;;1.58;;
72621;SDS011;60665;53.506;9.582;2022-07-29T02:32:43;4.10;;;1.20;;
72621;SDS011;60665;53.506;9.582;2022-07-29T02:35:10;3.45;;;1.30;;
72621;SDS011;60665;53.506;9.582;2022-07-29T02:37:38;3.92;;;1.30;;
72621;SDS011;60665;53.506;9.582;2022-07-29T02:40:04;3.50;;;1.42;;
72621;SDS011;60665;53.506;9.582;2022-07-29T02:42:31;4.45;;;1.45;;
72621;SDS011;60665;53.506;9.582;2022-07-29T02:44:57;4.13;;;1.27;;
72621;SDS011;60665;53.506;9.582;2022-07-29T02:50:21;9.35;;;1.40;;
72621;SDS011;60665;53.506;9.582;2022-07-29T02:52:57;3.53;;;1.15;;
72621;SDS011;60665;53.506;9.582;2022-07-29T02:55:29;4.70;;;1.23;;
72621;SDS011;60665;53.506;9.582;2022-07-29T02:58:05;3.95;;;1.30;;
72621;SDS011;60665;53.506;9.582;2022-07-29T03:00:36;3.50;;;1.15;;
72621;SDS011;60665;53.506;9.582;2022-07-29T03:03:03;4.15;;;1.33;;
72621;SDS011;60665;53.506;9.582;2022-07-29T03:05:30;6.05;;;1.33;;
72621;SDS011;60665;53.506;9.582;2022-07-29T03:07:57;4.85;;;1.65;;
72621;SDS011;60665;53.506;9.582;2022-07-29T03:10:25;3.83;;;1.40;;
72621;SDS011;60665;53.506;9.582;2022-07-29T03:12:51;6.53;;;1.48;;
72621;SDS011;60665;53.506;9.582;2022-07-29T03:15:16;3.42;;;1.38;;
72621;SDS011;60665;53.506;9.582;2022-07-29T03:17:42;3.42;;;1.20;;
72621;SDS011;60665;53.506;9.582;2022-07-29T03:20:08;5.78;;;1.70;;
72621;SDS011;60665;53.506;9.582;2022-07-29T03:22:41;4.32;;;1.60;;
72621;SDS011;60665;53.506;9.582;2022-07-29T03:25:12;6.43;;;1.23;;
72621;SDS011;60665;53.506;9.582;2022-07-29T03:27:38;3.45;;;1.30;;
72621;SDS011;60665;53.506;9.582;2022-07-29T03:30:04;4.72;;;1.50;;
72621;SDS011;60665;53.506;9.582;2022-07-29T03:32:30;4.20;;;1.70;;
72621;SDS011;60665;53.506;9.582;2022-07-29T03:34:55;3.63;;;1.50;;
72621;SDS011;60665;53.506;9.582;2022-07-29T03:37:21;6.78;;;1.80;;
72621;SDS011;60665;53.506;9.582;2022-07-29T03:39:46;4.60;;;1.48;;
72621;SDS011;60665;53.506;9.582;2022-07-29T03:42:13;3.75;;;1.35;;
72621;SDS011;60665;53.506;9.582;2022-07-29T03:47:06;4.82;;;1.75;;
72621;SDS011;60665;53.506;9.582;2022-07-29T03:49:33;5.15;;;1.80;;
72621;SDS011;60665;53.506;9.582;2022-07-29T03:52:01;6.63;;;1.60;;
72621;SDS011;60665;53.506;9.582;2022-07-29T03:54:27;5.97;;;1.60;;
72621;SDS011;60665;53.506;9.582;2022-07-29T03:56:52;5.10;;;1.63;;
72621;SDS011;60665;53.506;9.582;2022-07-29T03:59:19;4.75;;;1.55;;
72621;SDS011;60665;53.506;9.582;2022-07-29T04:01:45;4.25;;;1.48;;
72621;SDS011;60665;53.506;9.582;2022-07-29T04:04:10;5.18;;;1.55;;
72621;SDS011;60665;53.506;9.582;2022-07-29T04:06:43;6.43;;;1.60;;
72621;SDS011;60665;53.506;9.582;2022-07-29T04:09:10;5.65;;;1.73;;
72621;SDS011;60665;53.506;9.582;2022-07-29T04:11:36;6.68;;;1.80;;
72621;SDS011;60665;53.506;9.582;2022-07-29T04:14:03;6.60;;;2.30;;
72621;SDS011;60665;53.506;9.582;2022-07-29T04:16:28;8.77;;;1.70;;
72621;SDS011;60665;53.506;9.582;2022-07-29T04:18:54;7.47;;;1.60;;
72621;SDS011;60665;53.506;9.582;2022-07-29T04:21:19;5.20;;;1.65;;
72621;SDS011;60665;53.506;9.582;2022-07-29T04:23:44;5.43;;;1.55;;
72621;SDS011;60665;53.506;9.582;2022-07-29T04:26:14;5.90;;;1.67;;
72621;SDS011;60665;53.506;9.582;2022-07-29T04:28:39;6.00;;;1.65;;
72621;SDS011;60665;53.506;9.582;2022-07-29T04:31:05;4.97;;;1.60;;
72621;SDS011;60665;53.506;9.582;2022-07-29T04:33:30;6.05;;;1.80;;
72621;SDS011;60665;53.506;9.582;2022-07-29T04:35:56;5.03;;;1.63;;
72621;SDS011;60665;53.506;9.582;2022-07-29T04:38:21;3.35;;;1.40;;
72621;SDS011;60665;53.506;9.582;2022-07-29T04:40:47;5.55;;;1.60;;
72621;SDS011;60665;53.506;9.582;2022-07-29T04:43:12;5.13;;;1.70;;
72621;SDS011;60665;53.506;9.582;2022-07-29T04:45:38;5.32;;;1.67;;
72621;SDS011;60665;53.506;9.582;2022-07-29T04:48:03;4.80;;;1.50;;
72621;SDS011;60665;53.506;9.582;2022-07-29T04:50:29;5.82;;;1.63;;
72621;SDS011;60665;53.506;9.582;2022-07-29T04:52:54;5.00;;;1.70;;
72621;SDS011;60665;53.506;9.582;2022-07-29T04:55:19;5.03;;;1.83;;
72621;SDS011;60665;53.506;9.582;2022-07-29T04:57:45;7.70;;;1.88;;
72621;SDS011;60665;53.506;9.582;2022-07-29T05:00:10;8.35;;;1.95;;
72621;SDS011;60665;53.506;9.582;2022-07-29T05:02:36;5.90;;;2.75;;
72621;SDS011;60665;53.506;9.582;2022-07-29T05:05:01;7.93;;;1.80;;
72621;SDS011;60665;53.506;9.582;2022-07-29T05:07:27;5.38;;;1.48;;
72621;SDS011;60665;53.506;9.582;2022-07-29T05:09:52;6.25;;;1.75;;
72621;SDS011;60665;53.506;9.582;2022-07-29T05:12:18;6.32;;;2.05;;
72621;SDS011;60665;53.506;9.582;2022-07-29T05:14:43;6.80;;;1.90;;
72621;SDS011;60665;53.506;9.582;2022-07-29T05:17:09;6.70;;;1.88;;
72621;SDS011;60665;53.506;9.582;2022-07-29T05:19:34;5.68;;;1.92;;
72621;SDS011;60665;53.506;9.582;2022-07-29T05:21:59;6.72;;;2.33;;
72621;SDS011;60665;53.506;9.582;2022-07-29T05:24:25;5.40;;;1.85;;
72621;SDS011;60665;53.506;9.582;2022-07-29T05:26:50;6.43;;;1.92;;
72621;SDS011;60665;53.506;9.582;2022-07-29T05:29:16;5.35;;;1.50;;
72621;SDS011;60665;53.506;9.582;2022-07-29T05:31:41;5.72;;;2.03;;
72621;SDS011;60665;53.506;9.582;2022-07-29T05:34:06;6.20;;;1.65;;
72621;SDS011;60665;53.506;9.582;2022-07-29T05:36:32;5.05;;;1.80;;
72621;SDS011;60665;53.506;9.582;2022-07-29T05:38:57;6.93;;;1.70;;
72621;SDS011;60665;53.506;9.582;2022-07-29T05:41:23;6.18;;;1.92;;
72621;SDS011;60665;53.506;9.582;2022-07-29T05:43:49;6.03;;;1.70;;
72621;SDS011;60665;53.506;9.582;2022-07-29T05:46:14;7.53;;;1.80;;
72621;SDS011;60665;53.506;9.582;2022-07-29T05:48:40;4.93;;;1.70;;
72621;SDS011;60665;53.506;9.582;2022-07-29T05:51:05;7.15;;;1.92;;
72621;SDS011;60665;53.506;9.582;2022-07-29T05:53:30;8.15;;;1.80;;
72621;SDS011;60665;53.506;9.582;2022-07-29T05:55:56;5.03;;;1.77;;
72621;SDS011;60665;53.506;9.582;2022-07-29T05:58:21;5.28;;;1.92;;
72621;SDS011;60665;53.506;9.582;2022-07-29T06:00:46;5.70;;;2.00;;
72621;SDS011;60665;53.506;9.582;2022-07-29T06:03:12;9.20;;;1.77;;
72621;SDS011;60665;53.506;9.582;2022-07-29T06:05:37;7.22;;;1.60;;
72621;SDS011;60665;53.506;9.582;2022-07-29T06:08:02;5.78;;;2.20;;
72621;SDS011;60665;53.506;9.582;2022-07-29T06:10:30;5.88;;;1.67;;
72621;SDS011;60665;53.506;9.582;2022-07-29T06:12:56;5.00;;;1.73;;
72621;SDS011;60665;53.506;9.582;2022-07-29T06:15:21;4.13;;;1.42;;
72621;SDS011;60665;53.506;9.582;2022-07-29T06:17:46;7.60;;;1.85;;
72621;SDS011;60665;53.506;9.582;2022-07-29T06:20:13;9.43;;;2.00;;
72621;SDS011;60665;53.506;9.582;2022-07-29T06:22:38;8.57;;;2.22;;
72621;SDS011;60665;53.506;9.582;2022-07-29T06:25:03;6.32;;;1.70;;
72621;SDS011;60665;53.506;9.582;2022-07-29T06:27:29;5.35;;;1.85;;
72621;SDS011;60665;53.506;9.582;2022-07-29T06:29:55;4.35;;;1.52;;
72621;SDS011;60665;53.506;9.582;2022-07-29T06:32:21;4.55;;;1.63;;
72621;SDS011;60665;53.506;9.582;2022-07-29T06:34:46;9.70;;;2.03;;
72621;SDS011;60665;53.506;9.582;2022-07-29T06:37:12;6.28;;;2.33;;
72621;SDS011;60665;53.506;9.582;2022-07-29T06:39:37;8.65;;;2.05;;
72621;SDS011;60665;53.506;9.582;2022-07-29T06:42:06;5.65;;;1.80;;
72621;SDS011;60665;53.506;9.582;2022-07-29T06:44:31;14.45;;;2.13;;
72621;SDS011;60665;53.506;9.582;2022-07-29T06:46:58;7.07;;;1.80;;
72621;SDS011;60665;53.506;9.582;2022-07-29T06:49:24;7.90;;;2.13;;
72621;SDS011;60665;53.506;9.582;2022-07-29T06:51:51;7.13;;;2.03;;
72621;SDS011;60665;53.506;9.582;2022-07-29T06:54:16;7.15;;;1.63;;
72621;SDS011;60665;53.506;9.582;2022-07-29T06:56:42;6.70;;;1.80;;
72621;SDS011;60665;53.506;9.582;2022-07-29T06:59:08;7.38;;;1.70;;
72621;SDS011;60665;53.506;9.582;2022-07-29T07:01:38;5.03;;;1.60;;
72621;SDS011;60665;53.506;9.582;2022-07-29T07:04:06;6.72;;;1.73;;
72621;SDS011;60665;53.506;9.582;2022-07-29T07:06:33;9.40;;;1.88;;
72621;SDS011;60665;53.506;9.582;2022-07-29T07:08:58;8.95;;;2.53;;
72621;SDS011;60665;53.506;9.582;2022-07-29T07:11:24;7.13;;;1.77;;
72621;SDS011;60665;53.506;9.582;2022-07-29T07:13:49;8.15;;;1.95;;
72621;SDS011;60665;53.506;9.582;2022-07-29T07:16:14;9.88;;;2.10;;
72621;SDS011;60665;53.506;9.582;2022-07-29T07:18:40;7.50;;;2.33;;
72621;SDS011;60665;53.506;9.582;2022-07-29T07:21:06;7.97;;;1.77;;
72621;SDS011;60665;53.506;9.582;2022-07-29T07:23:31;8.07;;;2.22;;
72621;SDS011;60665;53.506;9.582;2022-07-29T07:25:56;7.05;;;2.10;;
72621;SDS011;60665;53.506;9.582;2022-07-29T07:28:22;9.27;;;2.28;;
72621;SDS011;60665;53.506;9.582;2022-07-29T07:30:47;10.68;;;2.10;;
72621;SDS011;60665;53.506;9.582;2022-07-29T07:33:13;8.75;;;2.03;;
72621;SDS011;60665;53.506;9.582;2022-07-29T07:35:38;10.32;;;2.00;;
72621;SDS011;60665;53.506;9.582;2022-07-29T07:38:04;7.13;;;1.83;;
72621;SDS011;60665;53.506;9.582;2022-07-29T07:40:30;6.72;;;1.92;;
72621;SDS011;60665;53.506;9.582;2022-07-29T07:42:56;7.57;;;2.10;;
72621;SDS011;60665;53.506;9.582;2022-07-29T07:45:21;7.72;;;1.98;;
72621;SDS011;60665;53.506;9.582;2022-07-29T07:47:47;10.10;;;1.83;;
72621;SDS011;60665;53.506;9.582;2022-07-29T07:50:12;6.57;;;2.17;;
72621;SDS011;60665;53.506;9.582;2022-07-29T07:52:53;7.45;;;1.73;;
72621;SDS011;60665;53.506;9.582;2022-07-29T07:58:16;8.43;;;2.03;;
72621;SDS011;60665;53.506;9.582;2022-07-29T08:00:42;6.18;;;1.85;;
72621;SDS011;60665;53.506;9.582;2022-07-29T08:03:07;5.78;;;1.83;;
72621;SDS011;60665;53.506;9.582;2022-07-29T08:05:33;7.18;;;2.42;;
72621;SDS011;60665;53.506;9.582;2022-07-29T08:07:58;7.28;;;1.60;;
72621;SDS011;60665;53.506;9.582;2022-07-29T08:10:24;6.97;;;1.83;;
72621;SDS011;60665;53.506;9.582;2022-07-29T08:13:08;7.13;;;1.73;;
72621;SDS011;60665;53.506;9.582;2022-07-29T08:15:34;5.28;;;1.92;;
72621;SDS011;60665;53.506;9.582;2022-07-29T08:18:00;10.02;;;1.98;;
72621;SDS011;60665;53.506;9.582;2022-07-29T08:20:25;7.65;;;1.92;;
72621;SDS011;60665;53.506;9.582;2022-07-29T08:22:52;5.40;;;1.65;;
72621;SDS011;60665;53.506;9.582;2022-07-29T08:25:18;7.55;;;2.10;;
72621;SDS011;60665;53.506;9.582;2022-07-29T08:27:45;4.78;;;1.98;;
72621;SDS011;60665;53.506;9.582;2022-07-29T08:30:11;6.50;;;1.83;;
72621;SDS011;60665;53.506;9.582;2022-07-29T08:32:37;6.30;;;2.03;;
72621;SDS011;60665;53.506;9.582;2022-07-29T08:35:02;5.60;;;1.90;;
72621;SDS011;60665;53.506;9.582;2022-07-29T08:37:28;6.47;;;2.20;;
72621;SDS011;60665;53.506;9.582;2022-07-29T08:39:53;5.93;;;1.80;;
72621;SDS011;60665;53.506;9.582;2022-07-29T08:42:18;7.82;;;2.00;;
72621;SDS011;60665;53.506;9.582;2022-07-29T08:44:44;10.45;;;1.80;;
72621;SDS011;60665;53.506;9.582;2022-07-29T08:47:10;4.45;;;1.70;;
72621;SDS011;60665;53.506;9.582;2022-07-29T08:49:38;6.63;;;1.63;;
72621;SDS011;60665;53.506;9.582;2022-07-29T08:52:04;6.25;;;1.85;;
72621;SDS011;60665;53.506;9.582;2022-07-29T08:54:30;5.72;;;1.80;;
72621;SDS011;60665;53.506;9.582;2022-07-29T08:56:55;7.07;;;1.85;;
72621;SDS011;60665;53.506;9.582;2022-07-29T08:59:22;7.78;;;1.67;;
72621;SDS011;60665;53.506;9.582;2022-07-29T09:01:48;6.97;;;1.83;;
72621;SDS011;60665;53.506;9.582;2022-07-29T09:04:14;8.55;;;1.65;;
72621;SDS011;60665;53.506;9.582;2022-07-29T09:06:45;9.10;;;2.20;;
72621;SDS011;60665;53.506;9.582;2022-07-29T09:09:12;8.80;;;1.83;;
72621;SDS011;60665;53.506;9.582;2022-07-29T09:11:39;7.88;;;2.20;;
72621;SDS011;60665;53.506;9.582;2022-07-29T09:14:04;4.82;;;1.85;;
72621;SDS011;60665;53.506;9.582;2022-07-29T09:16:46;4.78;;;2.00;;
72621;SDS011;60665;53.506;9.582;2022-07-29T09:19:24;7.30;;;1.80;;
72621;SDS011;60665;53.506;9.582;2022-07-29T09:21:55;5.30;;;2.00;;
72621;SDS011;60665;53.506;9.582;2022-07-29T09:27:00;7.32;;;1.70;;
72621;SDS011;60665;53.506;9.582;2022-07-29T09:29:25;5.88;;;1.70;;
72621;SDS011;60665;53.506;9.582;2022-07-29T09:31:52;8.55;;;2.03;;
72621;SDS011;60665;53.506;9.582;2022-07-29T09:34:26;7.50;;;1.63;;
72621;SDS011;60665;53.506;9.582;2022-07-29T09:36:53;4.63;;;2.08;;
72621;SDS011;60665;53.506;9.582;2022-07-29T09:39:29;6.07;;;1.67;;
72621;SDS011;60665;53.506;9.582;2022-07-29T09:41:58;8.02;;;1.83;;
72621;SDS011;60665;53.506;9.582;2022-07-29T09:44:25;6.05;;;1.70;;
72621;SDS011;60665;53.506;9.582;2022-07-29T09:49:19;7.78;;;1.63;;
72621;SDS011;60665;53.506;9.582;2022-07-29T09:51:44;6.28;;;1.83;;
72621;SDS011;60665;53.506;9.582;2022-07-29T09:54:20;6.55;;;2.03;;
72621;SDS011;60665;53.506;9.582;2022-07-29T09:56:47;5.32;;;1.95;;
72621;SDS011;60665;53.506;9.582;2022-07-29T09:59:13;8.52;;;1.83;;
72621;SDS011;60665;53.506;9.582;2022-07-29T10:01:38;6.88;;;1.85;;
72621;SDS011;60665;53.506;9.582;2022-07-29T10:04:04;9.40;;;2.20;;
72621;SDS011;60665;53.506;9.582;2022-07-29T10:06:29;8.43;;;1.92;;
72621;SDS011;60665;53.506;9.582;2022-07-29T10:09:01;5.65;;;1.70;;
72621;SDS011;60665;53.506;9.582;2022-07-29T10:11:32;8.38;;;2.30;;
72621;SDS011;60665;53.506;9.582;2022-07-29T10:13:57;14.75;;;2.42;;
72621;SDS011;60665;53.506;9.582;2022-07-29T10:16:23;6.60;;;1.55;;
72621;SDS011;60665;53.506;9.582;2022-07-29T10:18:49;8.05;;;2.03;;
72621;SDS011;60665;53.506;9.582;2022-07-29T10:21:16;8.38;;;1.90;;
72621;SDS011;60665;53.506;9.582;2022-07-29T10:23:41;6.13;;;2.00;;
72621;SDS011;60665;53.506;9.582;2022-07-29T10:26:07;7.78;;;2.15;;
72621;SDS011;60665;53.506;9.582;2022-07-29T10:28:34;8.63;;;2.00;;
72621;SDS011;60665;53.506;9.582;2022-07-29T10:31:04;5.82;;;2.13;;
72621;SDS011;60665;53.506;9.582;2022-07-29T10:39:18;4.93;;;1.77;;
72621;SDS011;60665;53.506;9.582;2022-07-29T10:44:27;6.07;;;1.88;;
72621;SDS011;60665;53.506;9.582;2022-07-29T10:46:53;7.65;;;1.55;;
72621;SDS011;60665;53.506;9.582;2022-07-29T10:49:20;7.55;;;1.73;;
72621;SDS011;60665;53.506;9.582;2022-07-29T10:54:19;7.30;;;1.67;;
72621;SDS011;60665;53.506;9.582;2022-07-29T10:59:48;3.55;;;1.50;;
72621;SDS011;60665;53.506;9.582;2022-07-29T11:05:07;4.43;;;1.52;;
72621;SDS011;60665;53.506;9.582;2022-07-29T11:07:37;4.72;;;1.58;;
72621;SDS011;60665;53.506;9.582;2022-07-29T11:15:02;5.13;;;1.45;;
72621;SDS011;60665;53.506;9.582;2022-07-29T11:17:30;5.97;;;1.45;;
72621;SDS011;60665;53.506;9.582;2022-07-29T11:20:30;6.25;;;1.13;;
72621;SDS011;60665;53.506;9.582;2022-07-29T11:25:46;6.30;;;1.33;;
72621;SDS011;60665;53.506;9.582;2022-07-29T11:34:28;5.20;;;1.52;;
72621;SDS011;60665;53.506;9.582;2022-07-29T11:39:32;7.40;;;1.75;;
72621;SDS011;60665;53.506;9.582;2022-07-29T11:47:33;7.25;;;1.70;;
72621;SDS011;60665;53.506;9.582;2022-07-29T11:50:00;5.88;;;1.58;;
72621;SDS011;60665;53.506;9.582;2022-07-29T11:52:32;3.97;;;1.70;;
72621;SDS011;60665;53.506;9.582;2022-07-29T11:55:01;5.10;;;1.90;;
72621;SDS011;60665;53.506;9.582;2022-07-29T11:57:28;6.35;;;1.52;;
72621;SDS011;60665;53.506;9.582;2022-07-29T11:59:54;7.55;;;1.85;;
72621;SDS011;60665;53.506;9.582;2022-07-29T12:02:20;6.38;;;1.85;;
72621;SDS011;60665;53.506;9.582;2022-07-29T12:07:15;5.45;;;1.85;;
72621;SDS011;60665;53.506;9.582;2022-07-29T12:09:41;6.00;;;1.70;;
72621;SDS011;60665;53.506;9.582;2022-07-29T12:12:15;6.30;;;1.42;;
72621;SDS011;60665;53.506;9.582;2022-07-29T12:14:41;4.85;;;1.73;;
72621;SDS011;60665;53.506;9.582;2022-07-29T12:17:24;7.75;;;1.67;;
72621;SDS011;60665;53.506;9.582;2022-07-29T12:19:59;7.20;;;1.52;;
72621;SDS011;60665;53.506;9.582;2022-07-29T12:22:38;6.10;;;1.77;;
72621;SDS011;60665;53.506;9.582;2022-07-29T12:27:32;6.45;;;2.45;;
72621;SDS011;60665;53.506;9.582;2022-07-29T12:29:59;4.53;;;1.83;;
72621;SDS011;60665;53.506;9.582;2022-07-29T12:32:32;5.03;;;1.52;;
72621;SDS011;60665;53.506;9.582;2022-07-29T12:35:18;6.35;;;1.52;;
72621;SDS011;60665;53.506;9.582;2022-07-29T12:37:45;5.82;;;1.65;;
72621;SDS011;60665;53.506;9.582;2022-07-29T12:40:13;4.70;;;1.63;;
72621;SDS011;60665;53.506;9.582;2022-07-29T12:42:41;6.88;;;1.67;;
72621;SDS011;60665;53.506;9.582;2022-07-29T12:45:30;5.95;;;1.67;;
72621;SDS011;60665;53.506;9.582;2022-07-29T12:47:56;8.48;;;1.73;;
72621;SDS011;60665;53.506;9.582;2022-07-29T12:50:22;4.38;;;1.55;;
72621;SDS011;60665;53.506;9.582;2022-07-29T12:52:48;6.60;;;1.98;;
72621;SDS011;60665;53.506;9.582;2022-07-29T12:55:13;6.40;;;1.83;;
72621;SDS011;60665;53.506;9.582;2022-07-29T12:57:49;6.30;;;1.52;;
72621;SDS011;60665;53.506;9.582;2022-07-29T13:00:21;4.80;;;1.23;;
72621;SDS011;60665;53.506;9.582;2022-07-29T13:02:56;5.93;;;1.58;;
72621;SDS011;60665;53.506;9.582;2022-07-29T13:05:22;4.88;;;1.48;;
72621;SDS011;60665;53.506;9.582;2022-07-29T13:07:47;5.00;;;1.42;;
72621;SDS011;60665;53.506;9.582;2022-07-29T13:10:14;7.47;;;1.40;;
72621;SDS011;60665;53.506;9.582;2022-07-29T13:15:33;6.05;;;1.33;;
72621;SDS011;60665;53.506;9.582;2022-07-29T13:17:59;4.43;;;1.45;;
72621;SDS011;60665;53.506;9.582;2022-07-29T13:20:26;6.10;;;1.30;;
72621;SDS011;60665;53.506;9.582;2022-07-29T13:22:54;6.55;;;1.73;;
72621;SDS011;60665;53.506;9.582;2022-07-29T13:25:25;7.03;;;1.60;;
72621;SDS011;60665;53.506;9.582;2022-07-29T13:27:51;5.38;;;1.63;;
72621;SDS011;60665;53.506;9.582;2022-07-29T13:30:16;7.15;;;1.48;;
72621;SDS011;60665;53.506;9.582;2022-07-29T13:32:41;5.30;;;1.33;;
72621;SDS011;60665;53.506;9.582;2022-07-29T13:35:07;7.80;;;1.50;;
72621;SDS011;60665;53.506;9.582;2022-07-29T13:37:33;5.50;;;1.55;;
72621;SDS011;60665;53.506;9.582;2022-07-29T13:40:03;4.85;;;1.75;;
72621;SDS011;60665;53.506;9.582;2022-07-29T13:42:29;5.85;;;1.42;;
72621;SDS011;60665;53.506;9.582;2022-07-29T13:44:54;4.68;;;1.08;;
72621;SDS011;60665;53.506;9.582;2022-07-29T13:47:20;3.70;;;1.30;;
72621;SDS011;60665;53.506;9.582;2022-07-29T13:49:46;5.43;;;1.52;;
72621;SDS011;60665;53.506;9.582;2022-07-29T13:52:11;5.13;;;1.70;;
72621;SDS011;60665;53.506;9.582;2022-07-29T13:54:37;5.28;;;1.35;;
72621;SDS011;60665;53.506;9.582;2022-07-29T13:57:03;4.25;;;1.27;;
72621;SDS011;60665;53.506;9.582;2022-07-29T13:59:29;6.63;;;1.67;;
72621;SDS011;60665;53.506;9.582;2022-07-29T14:01:54;4.22;;;1.35;;
72621;SDS011;60665;53.506;9.582;2022-07-29T14:04:20;4.82;;;1.50;;
72621;SDS011;60665;53.506;9.582;2022-07-29T14:06:46;3.60;;;1.50;;
72621;SDS011;60665;53.506;9.582;2022-07-29T14:09:12;4.07;;;1.15;;
72621;SDS011;60665;53.506;9.582;2022-07-29T14:11:37;7.47;;;1.42;;
72621;SDS011;60665;53.506;9.582;2022-07-29T14:14:05;4.75;;;1.48;;
72621;SDS011;60665;53.506;9.582;2022-07-29T14:16:31;4.85;;;1.90;;
72621;SDS011;60665;53.506;9.582;2022-07-29T14:18:56;6.70;;;1.38;;
72621;SDS011;60665;53.506;9.582;2022-07-29T14:21:22;6.28;;;1.42;;
72621;SDS011;60665;53.506;9.582;2022-07-29T14:23:47;6.38;;;1.67;;
72621;SDS011;60665;53.506;9.582;2022-07-29T14:26:13;6.82;;;1.52;;
72621;SDS011;60665;53.506;9.582;2022-07-29T14:28:39;6.22;;;1.52;;
72621;SDS011;60665;53.506;9.582;2022-07-29T14:31:04;7.53;;;1.70;;
72621;SDS011;60665;53.506;9.582;2022-07-29T14:33:29;4.72;;;1.30;;
72621;SDS011;60665;53.506;9.582;2022-07-29T14:35:55;4.15;;;1.38;;
72621;SDS011;60665;53.506;9.582;2022-07-29T14:38:20;6.18;;;1.52;;
72621;SDS011;60665;53.506;9.582;2022-07-29T14:40:45;4.43;;;1.50;;
72621;SDS011;60665;53.506;9.582;2022-07-29T14:43:11;3.83;;;1.45;;
72621;SDS011;60665;53.506;9.582;2022-07-29T14:45:38;5.53;;;1.77;;
72621;SDS011;60665;53.506;9.582;2022-07-29T14:48:04;4.72;;;1.35;;
72621;SDS011;60665;53.506;9.582;2022-07-29T14:50:29;5.53;;;1.50;;
72621;SDS011;60665;53.506;9.582;2022-07-29T14:52:55;8.88;;;1.48;;
72621;SDS011;60665;53.506;9.582;2022-07-29T14:55:20;5.80;;;1.52;;
72621;SDS011;60665;53.506;9.582;2022-07-29T14:57:46;6.00;;;1.65;;
72621;SDS011;60665;53.506;9.582;2022-07-29T15:00:12;6.85;;;1.83;;
72621;SDS011;60665;53.506;9.582;2022-07-29T15:02:38;7.80;;;1.88;;
72621;SDS011;60665;53.506;9.582;2022-07-29T15:05:03;6.43;;;1.65;;
72621;SDS011;60665;53.506;9.582;2022-07-29T15:07:29;6.10;;;1.63;;
72621;SDS011;60665;53.506;9.582;2022-07-29T15:09:54;8.68;;;1.50;;
72621;SDS011;60665;53.506;9.582;2022-07-29T15:12:19;3.95;;;1.70;;
72621;SDS011;60665;53.506;9.582;2022-07-29T15:14:45;5.22;;;1.40;;
72621;SDS011;60665;53.506;9.582;2022-07-29T15:17:10;9.20;;;1.65;;
72621;SDS011;60665;53.506;9.582;2022-07-29T15:19:36;5.15;;;1.70;;
72621;SDS011;60665;53.506;9.582;2022-07-29T15:22:01;8.90;;;1.83;;
72621;SDS011;60665;53.506;9.582;2022-07-29T15:24:26;5.55;;;1.80;;
72621;SDS011;60665;53.506;9.582;2022-07-29T15:26:52;6.00;;;1.45;;
72621;SDS011;60665;53.506;9.582;2022-07-29T15:29:17;6.50;;;1.60;;
72621;SDS011;60665;53.506;9.582;2022-07-29T15:31:43;4.47;;;1.60;;
72621;SDS011;60665;53.506;9.582;2022-07-29T15:34:08;4.72;;;1.58;;
72621;SDS011;60665;53.506;9.582;2022-07-29T15:36:33;6.85;;;1.73;;
72621;SDS011;60665;53.506;9.582;2022-07-29T15:38:59;3.90;;;1.55;;
72621;SDS011;60665;53.506;9.582;2022-07-29T15:41:24;5.13;;;1.50;;
72621;SDS011;60665;53.506;9.582;2022-07-29T15:43:50;6.63;;;1.55;;
72621;SDS011;60665;53.506;9.582;2022-07-29T15:46:17;5.60;;;1.52;;
72621;SDS011;60665;53.506;9.582;2022-07-29T15:49:03;6.68;;;1.60;;
72621;SDS011;60665;53.506;9.582;2022-07-29T15:51:29;4.78;;;1.63;;
72621;SDS011;60665;53.506;9.582;2022-07-29T15:53:55;7.75;;;2.00;;
72621;SDS011;60665;53.506;9.582;2022-07-29T15:56:20;6.68;;;2.10;;
72621;SDS011;60665;53.506;9.582;2022-07-29T15:58:46;6.63;;;1.58;;
72621;SDS011;60665;53.506;9.582;2022-07-29T16:01:11;4.75;;;1.70;;
72621;SDS011;60665;53.506;9.582;2022-07-29T16:03:37;6.95;;;1.65;;